Time;durP1;ratioP1;P1;durP2;ratioP2;P2;SDS_P1;SDS_P2;PMS_P1;PMS_P2;Temp;Humidity;BMP_temperature;BMP_pressure;BME280_temperature;BME280_humidity;BME280_pressure;Samples;Min_cycle;Max_cycle;Signal;HPM_P1;HPM_P2
2022/05/28 00:00:19;;;;;;;4.20;2.85;;;;;;;24.38;47.91;100365.50;1806770;78;21041;-77
2022/05/28 00:02:45;;;;;;;4.15;2.72;;;;;;;24.37;47.90;100361.09;1829769;78;20986;-77
2022/05/28 00:05:12;;;;;;;3.17;2.67;;;;;;;24.38;47.89;100362.72;1829969;77;21421;-77
2022/05/28 00:07:39;;;;;;;3.35;2.55;;;;;;;24.37;47.89;100354.14;1762232;81;21429;-77
2022/05/28 00:10:08;;;;;;;3.52;2.52;;;;;;;24.38;47.89;100350.20;1775093;80;21022;-77
2022/05/28 00:12:34;;;;;;;3.25;2.67;;;;;;;24.37;47.86;100354.14;1830558;77;21426;-78
2022/05/28 00:15:00;;;;;;;3.65;2.60;;;;;;;24.37;47.86;100349.16;1829958;78;21009;-77
2022/05/28 00:17:26;;;;;;;6.08;2.58;;;;;;;24.38;47.87;100341.05;1830027;78;21575;-77
2022/05/28 00:19:54;;;;;;;3.30;2.62;;;;;;;24.36;47.84;100335.84;1829726;78;21884;-77
2022/05/28 00:22:20;;;;;;;3.37;2.47;;;;;;;24.37;47.83;100337.46;1834274;77;21481;-77
2022/05/28 00:24:46;;;;;;;3.30;2.40;;;;;;;24.38;47.82;100336.88;1810530;78;21366;-77
2022/05/28 00:27:13;;;;;;;3.70;2.65;;;;;;;24.37;47.83;100333.29;1829717;77;21013;-77
2022/05/28 00:29:39;;;;;;;3.50;2.30;;;;;;;24.37;47.82;100332.48;1738012;81;21560;-77
2022/05/28 00:32:06;;;;;;;3.05;2.70;;;;;;;24.37;47.84;100332.48;1806896;77;22132;-77
2022/05/28 00:34:32;;;;;;;4.65;2.80;;;;;;;24.37;47.81;100332.48;1761839;81;21061;-77
2022/05/28 00:36:58;;;;;;;3.47;2.45;;;;;;;24.37;47.79;100331.09;1771230;80;21452;-77
2022/05/28 00:39:25;;;;;;;4.67;2.77;;;;;;;24.37;47.77;100329.70;1770605;81;21049;-77
2022/05/28 00:41:51;;;;;;;4.15;2.70;;;;;;;24.36;47.77;100330.27;1769764;80;21005;-77
2022/05/28 00:44:17;;;;;;;3.08;2.65;;;;;;;24.37;47.76;100326.91;1772330;80;21461;-77
2022/05/28 00:46:43;;;;;;;3.75;2.60;;;;;;;24.37;47.76;100325.53;1770889;80;21034;-77
2022/05/28 00:49:15;;;;;;;3.52;2.52;;;;;;;24.36;47.75;100326.10;1737657;81;21044;-77
2022/05/28 00:51:44;;;;;;;4.45;2.70;;;;;;;24.36;47.75;100326.68;1769453;80;20962;-77
2022/05/28 00:54:10;;;;;;;4.92;2.67;;;;;;;24.36;47.75;100320.55;1771218;80;20982;-78
2022/05/28 00:56:37;;;;;;;3.12;2.25;;;;;;;24.36;47.73;100322.52;1770857;81;21133;-78
2022/05/28 00:59:03;;;;;;;3.35;2.67;;;;;;;24.36;47.73;100331.66;1770757;80;21052;-77
2022/05/28 01:01:31;;;;;;;2.67;2.30;;;;;;;24.36;47.70;100323.32;1770964;80;21448;-77
2022/05/28 01:04:12;;;;;;;3.17;2.35;;;;;;;24.36;47.72;100319.16;1770924;80;20994;-77
2022/05/28 01:06:51;;;;;;;;;;;;;;;24.35;47.70;100325.90;1832674;78;20974;-77
2022/05/28 01:09:44;;;;;;;3.98;2.20;;;;;;;24.35;47.70;100319.53;1829544;78;21141;-77
2022/05/28 01:12:30;;;;;;;3.45;2.55;;;;;;;24.33;47.71;100314.31;1829956;78;21014;-77
2022/05/28 01:15:04;;;;;;;4.40;2.77;;;;;;;24.34;47.71;100318.72;1829794;78;21041;-77
2022/05/28 01:17:38;;;;;;;3.90;2.47;;;;;;;24.32;47.69;100316.86;1761869;81;21022;-77
2022/05/28 01:20:18;;;;;;;4.05;2.83;;;;;;;24.32;47.69;100320.21;1793518;79;21100;-77
2022/05/28 01:23:19;;;;;;;3.10;2.67;;;;;;;24.32;47.71;100318.82;1762384;81;21805;-78
2022/05/28 01:26:09;;;;;;;3.55;2.80;;;;;;;24.32;47.71;100316.05;1808803;78;21001;-77
2022/05/28 01:28:42;;;;;;;4.73;3.10;;;;;;;24.31;47.69;100322.21;1771226;77;20981;-77
2022/05/28 01:31:08;;;;;;;3.60;2.80;;;;;;;24.31;47.69;100318.63;1841374;77;21060;-77
2022/05/28 01:33:35;;;;;;;4.53;3.17;;;;;;;24.30;47.72;100317.80;1809497;77;21108;-77
2022/05/28 01:36:07;;;;;;;3.52;2.80;;;;;;;24.30;47.72;100320.59;1841615;77;21491;-77
2022/05/28 01:38:34;;;;;;;5.33;3.17;;;;;;;24.31;47.73;100324.99;1841237;77;20993;-77
2022/05/28 01:41:01;;;;;;;4.42;3.52;;;;;;;24.31;47.72;100325.57;1738935;80;21100;-77
2022/05/28 01:43:27;;;;;;;3.67;3.00;;;;;;;24.31;47.70;100326.38;1808899;77;21024;-77
2022/05/28 01:45:53;;;;;;;3.72;3.33;;;;;;;24.31;47.72;100334.72;1841359;77;21013;-77
2022/05/28 01:48:20;;;;;;;3.98;3.58;;;;;;;24.31;47.70;100331.94;1808804;77;21514;-77
2022/05/28 01:50:48;;;;;;;3.83;3.10;;;;;;;24.31;47.69;100326.38;1841406;77;21005;-77
2022/05/28 01:54:07;;;;;;;4.30;3.47;;;;;;;24.32;47.69;100325.77;1841196;77;21068;-77
2022/05/28 01:55:44;;;;;;;4.97;3.90;;;;;;;24.32;47.69;100332.72;1836627;77;21016;-77
2022/05/28 01:58:11;;;;;;;4.67;3.45;;;;;;;24.31;47.70;100336.69;1769146;80;21516;-77
2022/05/28 02:00:37;;;;;;;5.78;3.85;;;;;;;24.32;47.69;100335.50;1841107;77;21782;-77
2022/05/28 02:03:03;;;;;;;4.03;3.55;;;;;;;24.31;47.68;100338.89;1841192;77;21006;-77
2022/05/28 02:05:31;;;;;;;4.72;4.08;;;;;;;24.32;47.71;100339.67;1841671;77;20998;-77
2022/05/28 02:07:57;;;;;;;5.20;4.70;;;;;;;24.31;47.69;100338.89;1841271;77;21048;-77
2022/05/28 02:10:23;;;;;;;5.47;4.87;;;;;;;24.30;47.68;100335.87;1841645;77;20973;-77
2022/05/28 02:12:58;;;;;;;6.12;4.58;;;;;;;24.32;47.68;100338.28;1809091;77;21990;-76
2022/05/28 02:15:46;;;;;;;5.37;4.40;;;;;;;24.31;47.68;100337.50;1738987;80;21500;-78
2022/05/28 02:18:39;;;;;;;5.08;4.58;;;;;;;24.31;47.68;100341.67;1781550;80;20997;-77
2022/05/28 02:21:09;;;;;;;6.15;4.95;;;;;;;24.31;47.65;100333.33;1809185;77;21451;-77
2022/05/28 02:23:47;;;;;;;5.37;4.87;;;;;;;24.30;47.63;100326.15;1841932;77;21049;-77
2022/05/28 02:26:41;;;;;;;5.40;4.65;;;;;;;24.31;47.65;100336.11;1841130;77;21463;-77
2022/05/28 02:29:07;;;;;;;5.30;4.78;;;;;;;24.30;47.65;100337.27;1841436;77;21017;-77
2022/05/28 02:31:34;;;;;;;5.83;4.90;;;;;;;24.30;47.63;100333.67;1768177;80;21605;-77
2022/05/28 02:34:06;;;;;;;6.62;5.00;;;;;;;24.30;47.64;100333.67;1740852;81;21060;-77
2022/05/28 02:36:32;;;;;;;5.45;4.47;;;;;;;24.29;47.64;100326.48;1799373;79;21458;-77
2022/05/28 02:38:58;;;;;;;5.83;5.20;;;;;;;24.29;47.63;100326.48;1768624;80;22035;-77
2022/05/28 02:41:25;;;;;;;6.03;5.42;;;;;;;24.29;47.63;100323.71;1787667;80;21080;-77
2022/05/28 02:43:52;;;;;;;7.95;5.65;;;;;;;24.30;47.64;100323.95;1841591;77;20902;-77
2022/05/28 02:46:19;;;;;;;6.47;5.58;;;;;;;24.29;47.62;100324.52;1768534;81;21002;-77
2022/05/28 02:48:45;;;;;;;6.92;5.83;;;;;;;24.30;47.63;100323.95;1800398;79;21519;-77
2022/05/28 02:51:15;;;;;;;6.58;5.75;;;;;;;24.30;47.62;100324.76;1769070;80;21453;-77
2022/05/28 02:53:41;;;;;;;7.20;5.37;;;;;;;24.30;47.61;100331.70;1841398;77;21013;-77
2022/05/28 02:56:08;;;;;;;6.35;5.75;;;;;;;24.31;47.62;100326.96;1841650;77;21045;-77
2022/05/28 02:58:34;;;;;;;6.58;5.97;;;;;;;24.31;47.61;100329.16;1841458;77;21036;-78
2022/05/28 03:01:05;;;;;;;6.67;5.65;;;;;;;24.29;47.62;100325.91;1841053;77;21001;-78
2022/05/28 03:03:32;;;;;;;6.35;5.75;;;;;;;24.29;47.57;100330.66;1767660;80;21468;-78
2022/05/28 03:05:58;;;;;;;5.97;5.42;;;;;;;24.30;47.56;100325.34;1799709;79;21049;-78
2022/05/28 03:08:24;;;;;;;6.47;5.85;;;;;;;24.30;47.58;100327.54;1768258;80;21586;-78
2022/05/28 03:10:51;;;;;;;6.78;6.05;;;;;;;24.30;47.57;100318.39;1801016;79;21045;-78
2022/05/28 03:13:17;;;;;;;7.00;5.92;;;;;;;24.30;47.57;100318.39;1767570;80;21461;-77
2022/05/28 03:15:43;;;;;;;7.12;6.00;;;;;;;24.30;47.54;100319.20;1781202;80;21346;-77
2022/05/28 03:18:09;;;;;;;6.75;6.05;;;;;;;24.30;47.55;100323.95;1738923;80;20973;-77
2022/05/28 03:20:35;;;;;;;7.92;5.60;;;;;;;24.30;47.55;100326.15;1768377;80;21045;-77
2022/05/28 03:23:01;;;;;;;6.72;5.47;;;;;;;24.31;47.54;100322.79;1835729;77;21369;-77
2022/05/28 03:25:28;;;;;;;6.37;5.78;;;;;;;24.30;47.52;100324.76;1835542;77;21481;-78
2022/05/28 03:27:54;;;;;;;6.78;6.17;;;;;;;24.31;47.53;100334.72;1830017;78;21084;-78
2022/05/28 03:30:20;;;;;;;7.33;6.17;;;;;;;24.31;47.50;100329.16;1829430;78;21725;-77
2022/05/28 03:32:47;;;;;;;5.83;5.25;;;;;;;24.31;47.49;100335.30;1829808;77;21049;-77
2022/05/28 03:35:13;;;;;;;6.95;5.80;;;;;;;24.30;47.49;100344.22;1829821;78;21800;-77
2022/05/28 03:37:39;;;;;;;7.60;5.75;;;;;;;24.31;47.49;100350.02;1748767;81;22062;-78
2022/05/28 03:40:13;;;;;;;6.70;6.00;;;;;;;24.31;47.49;100354.19;1779615;80;21220;-77
2022/05/28 03:42:39;;;;;;;6.50;5.83;;;;;;;24.32;47.47;100353.58;1756358;80;21028;-77
2022/05/28 03:45:06;;;;;;;6.28;5.67;;;;;;;24.32;47.46;100353.58;1779234;79;21017;-77
2022/05/28 03:47:32;;;;;;;6.70;6.00;;;;;;;24.32;47.46;100355.78;1779449;80;20998;-77
2022/05/28 03:49:59;;;;;;;8.43;5.97;;;;;;;24.31;47.45;100356.97;1755074;80;21053;-77
2022/05/28 03:52:25;;;;;;;8.78;6.08;;;;;;;24.31;47.43;100363.91;1754803;80;21159;-77
2022/05/28 03:54:51;;;;;;;8.03;5.78;;;;;;;24.31;47.46;100356.97;1779689;80;21076;-78
2022/05/28 03:57:24;;;;;;;6.65;5.53;;;;;;;24.32;47.45;100361.91;1779598;80;21021;-77
2022/05/28 03:59:51;;;;;;;8.15;5.12;;;;;;;24.31;47.43;100363.91;1748611;82;21526;-77
2022/05/28 04:02:17;;;;;;;8.25;5.80;;;;;;;24.31;47.42;100364.49;1779276;80;21064;-77
2022/05/28 04:04:43;;;;;;;7.97;5.65;;;;;;;24.31;47.43;100358.94;1755254;80;21465;-77
2022/05/28 04:07:11;;;;;;;5.97;5.12;;;;;;;24.32;47.41;100362.73;1779169;80;21061;-77
2022/05/28 04:09:43;;;;;;;5.97;4.75;;;;;;;24.31;47.41;100360.33;1779594;80;21504;-77
2022/05/28 04:12:10;;;;;;;6.55;5.35;;;;;;;24.31;47.40;100361.13;1748953;81;21273;-77
2022/05/28 04:14:36;;;;;;;7.47;5.78;;;;;;;24.32;47.41;100360.52;1779278;80;21057;-78
2022/05/28 04:17:04;;;;;;;5.90;5.28;;;;;;;24.31;47.40;100357.54;1779502;80;21120;-77
2022/05/28 04:19:30;;;;;;;5.70;5.10;;;;;;;24.30;47.41;100358.12;1779516;80;20982;-77
2022/05/28 04:21:56;;;;;;;7.03;5.20;;;;;;;24.31;47.39;100357.54;1779339;80;20998;-77
2022/05/28 04:24:22;;;;;;;6.55;5.05;;;;;;;24.31;47.38;100361.13;1748899;82;21618;-77
2022/05/28 04:26:49;;;;;;;6.65;4.87;;;;;;;24.32;47.40;100359.14;1765497;80;21045;-77
2022/05/28 04:29:15;;;;;;;5.95;5.20;;;;;;;24.31;47.40;100361.13;1765440;80;21121;-77
2022/05/28 04:31:42;;;;;;;6.67;5.35;;;;;;;24.32;47.39;100355.78;1826360;78;21025;-77
2022/05/28 04:34:09;;;;;;;6.30;4.97;;;;;;;24.33;47.39;100364.93;1826512;78;21050;-78
2022/05/28 04:36:35;;;;;;;9.75;4.87;;;;;;;24.32;47.40;100369.68;1826352;78;21603;-77
2022/05/28 04:39:01;;;;;;;5.65;4.72;;;;;;;24.31;47.39;100373.65;1826464;78;20949;-77
2022/05/28 04:41:27;;;;;;;7.37;4.78;;;;;;;24.32;47.38;100370.26;1826439;78;21266;-77
2022/05/28 04:43:53;;;;;;;5.15;4.53;;;;;;;24.32;47.41;100368.87;1826106;78;21017;-77
2022/05/28 04:46:20;;;;;;;5.78;4.45;;;;;;;24.32;47.40;100361.91;1826553;78;21480;-78
2022/05/28 04:48:46;;;;;;;7.12;5.05;;;;;;;24.32;47.39;100370.26;1826411;77;21076;-77
2022/05/28 04:51:13;;;;;;;6.33;4.90;;;;;;;24.32;47.36;100373.04;1740910;81;21540;-77
2022/05/28 04:53:39;;;;;;;6.12;4.92;;;;;;;24.32;47.39;100366.09;1764932;81;22866;-77
2022/05/28 04:56:05;;;;;;;7.70;4.55;;;;;;;24.32;47.41;100366.90;1732224;82;21046;-77
2022/05/28 04:58:31;;;;;;;5.05;4.50;;;;;;;24.33;47.40;100369.10;1826512;77;20962;-77
2022/05/28 05:00:57;;;;;;;5.72;4.75;;;;;;;24.32;47.40;100369.68;1805586;78;21471;-77
2022/05/28 05:03:24;;;;;;;5.87;4.62;;;;;;;24.33;47.39;100376.05;1741321;81;21065;-77
2022/05/28 05:05:50;;;;;;;5.28;4.50;;;;;;;24.33;47.39;100368.52;1743287;81;22574;-78
2022/05/28 05:08:16;;;;;;;5.35;4.58;;;;;;;24.33;47.39;100374.66;1741131;82;21029;-77
2022/05/28 05:10:44;;;;;;;4.70;4.15;;;;;;;24.33;47.40;100370.49;1765138;81;21026;-77
2022/05/28 05:13:10;;;;;;;6.62;4.85;;;;;;;24.32;47.40;100369.68;1764857;81;21021;-77
2022/05/28 05:15:38;;;;;;;4.83;4.40;;;;;;;24.33;47.39;100378.25;1765034;80;21045;-77
2022/05/28 05:18:04;;;;;;;5.55;4.40;;;;;;;24.33;47.40;100373.27;1765049;80;21522;-77
2022/05/28 05:20:30;;;;;;;5.42;4.30;;;;;;;24.33;47.40;100374.66;1764954;80;20903;-77
2022/05/28 05:22:57;;;;;;;6.30;4.33;;;;;;;24.33;47.40;100374.66;1765838;80;21085;-77
2022/05/28 05:25:23;;;;;;;6.20;4.50;;;;;;;24.33;47.41;100376.86;1766680;80;21465;-77
2022/05/28 05:27:50;;;;;;;5.85;4.30;;;;;;;24.34;47.41;100381.84;1738230;81;21105;-77
2022/05/28 05:30:16;;;;;;;5.45;4.22;;;;;;;24.34;47.42;100383.23;1762620;80;21151;-77
2022/05/28 05:32:42;;;;;;;5.40;4.15;;;;;;;24.34;47.40;100377.10;1793764;79;20950;-77
2022/05/28 05:35:09;;;;;;;5.75;4.33;;;;;;;24.35;47.39;100380.70;1829999;77;21042;-77
2022/05/28 05:37:41;;;;;;;5.35;4.00;;;;;;;24.35;47.43;100375.13;1806994;78;21467;-77
2022/05/28 05:40:10;;;;;;;5.22;4.40;;;;;;;24.35;47.42;100372.35;1806915;78;21104;-77
2022/05/28 05:42:37;;;;;;;5.35;3.98;;;;;;;24.34;47.41;100373.51;1829839;78;21246;-77
2022/05/28 05:45:04;;;;;;;4.72;4.20;;;;;;;24.35;47.40;100374.55;1829986;77;21061;-77
2022/05/28 05:47:31;;;;;;;6.28;4.28;;;;;;;24.35;47.43;100374.55;1830319;77;21489;-77
2022/05/28 05:49:57;;;;;;;5.40;4.00;;;;;;;24.34;47.45;100370.16;1829900;78;21030;-77
2022/05/28 05:52:23;;;;;;;5.67;4.12;;;;;;;24.35;47.45;100360.66;1830241;78;21013;-78
2022/05/28 05:54:49;;;;;;;5.03;4.05;;;;;;;24.34;47.46;100357.64;1830097;77;21664;-77
2022/05/28 05:57:15;;;;;;;5.35;4.25;;;;;;;24.34;47.48;100359.03;1738273;81;21628;-77
2022/05/28 05:59:41;;;;;;;7.90;4.70;;;;;;;24.35;47.47;100358.45;1794321;79;20986;-77
2022/05/28 06:02:08;;;;;;;5.97;4.37;;;;;;;24.36;47.49;100360.05;1762709;81;21044;-77
2022/05/28 06:04:34;;;;;;;5.08;3.80;;;;;;;24.35;47.49;100363.44;1830565;77;21034;-77
2022/05/28 06:07:02;;;;;;;8.10;4.25;;;;;;;24.36;47.50;100367.00;1830145;78;21477;-77
2022/05/28 06:09:29;;;;;;;6.75;4.08;;;;;;;24.36;47.50;100370.59;1807308;78;20930;-78
2022/05/28 06:11:55;;;;;;;5.25;3.90;;;;;;;24.35;47.51;100374.55;1829737;78;21053;-78
2022/05/28 06:14:21;;;;;;;4.47;3.75;;;;;;;24.36;47.51;100369.20;1830084;77;21033;-77
2022/05/28 06:16:47;;;;;;;5.95;4.08;;;;;;;24.37;47.51;100374.99;1830166;78;21069;-78
2022/05/28 06:19:14;;;;;;;5.12;3.72;;;;;;;24.37;47.52;100365.27;1829896;77;21122;-77
2022/05/28 06:21:40;;;;;;;5.60;3.70;;;;;;;24.36;47.52;100367.81;1761579;81;21512;-78
2022/05/28 06:24:07;;;;;;;5.17;3.83;;;;;;;24.37;47.51;100364.45;1794208;79;21053;-77
2022/05/28 06:26:33;;;;;;;5.08;3.87;;;;;;;24.37;47.53;100356.92;1748281;79;21050;-78
2022/05/28 06:28:59;;;;;;;6.78;4.42;;;;;;;24.38;47.52;100360.52;1759965;81;21041;-77
2022/05/28 06:31:26;;;;;;;4.20;3.80;;;;;;;24.37;47.55;100358.31;1759941;81;21491;-77
2022/05/28 06:33:52;;;;;;;5.40;4.28;;;;;;;24.39;47.54;100351.02;1738046;80;20998;-77
2022/05/28 06:36:18;;;;;;;5.33;3.80;;;;;;;24.39;47.56;100351.02;1759807;81;20999;-77
2022/05/28 06:38:45;;;;;;;5.40;3.98;;;;;;;24.39;47.54;100344.06;1759695;81;21030;-77
2022/05/28 06:41:12;;;;;;;5.25;4.00;;;;;;;24.38;47.56;100350.20;1759333;80;20999;-77
2022/05/28 06:43:38;;;;;;;5.20;3.65;;;;;;;24.39;47.55;100348.23;1759798;80;21009;-77
2022/05/28 06:46:07;;;;;;;5.05;3.62;;;;;;;24.39;47.56;100341.28;1759649;81;21069;-77
2022/05/28 06:48:35;;;;;;;5.22;4.03;;;;;;;24.40;47.57;100338.13;1737960;81;21002;-77
2022/05/28 06:51:03;;;;;;;4.50;3.47;;;;;;;24.39;47.55;100333.76;1759969;80;20942;-77
2022/05/28 06:53:41;;;;;;;5.08;4.15;;;;;;;24.40;47.55;100335.35;1738532;81;21049;-77
2022/05/28 06:56:09;;;;;;;4.12;3.58;;;;;;;24.39;47.55;100328.20;1759904;81;21222;-77
2022/05/28 06:58:35;;;;;;;7.37;4.08;;;;;;;24.40;47.57;100318.67;1759971;80;21038;-77
2022/05/28 07:01:02;;;;;;;5.50;4.17;;;;;;;24.40;47.57;100311.72;1736110;81;21045;-77
2022/05/28 07:03:29;;;;;;;5.60;4.12;;;;;;;24.40;47.57;100313.11;1759670;81;21045;-77
2022/05/28 07:05:56;;;;;;;4.25;3.85;;;;;;;24.41;47.57;100311.14;1759962;80;22210;-77
2022/05/28 07:08:22;;;;;;;5.85;4.15;;;;;;;24.41;47.58;100302.22;1735232;81;21217;-77
2022/05/28 07:10:54;;;;;;;5.42;3.77;;;;;;;24.40;47.58;100295.03;1759820;81;21062;-77
2022/05/28 07:13:21;;;;;;;4.55;3.90;;;;;;;24.42;47.61;100303.03;1759929;81;21365;-77
2022/05/28 07:15:47;;;;;;;4.40;3.80;;;;;;;24.42;47.60;100301.64;1759888;80;21429;-77
2022/05/28 07:18:14;;;;;;;5.03;3.75;;;;;;;24.41;47.61;100300.83;1759928;80;21089;-77
2022/05/28 07:20:40;;;;;;;5.75;3.98;;;;;;;24.42;47.63;100302.45;1736254;81;21766;-77
2022/05/28 07:23:19;;;;;;;4.53;3.37;;;;;;;24.44;47.64;100302.11;1736157;81;20994;-77
2022/05/28 07:25:46;;;;;;;5.92;4.17;;;;;;;24.43;47.65;100308.25;1759585;80;21583;-77
2022/05/28 07:31:11;;;;;;;5.08;3.92;;;;;;;24.44;47.66;100297.94;1759588;80;21018;-77
2022/05/28 07:33:40;;;;;;;;;;;;;;;24.43;47.66;100294.92;1738550;81;21153;-77
2022/05/28 07:36:07;;;;;;;4.65;3.47;;;;;;;24.41;47.68;100295.27;1761197;80;20130;-77
2022/05/28 07:38:40;;;;;;;5.35;3.42;;;;;;;24.41;47.67;100293.88;1759963;81;21026;-77
2022/05/28 07:41:10;;;;;;;5.17;3.55;;;;;;;24.42;47.68;100298.28;1759891;81;21552;-77
2022/05/28 07:43:36;;;;;;;4.78;3.40;;;;;;;24.41;47.69;100296.66;1759503;81;21046;-77
2022/05/28 07:46:05;;;;;;;5.67;3.67;;;;;;;24.42;47.71;100298.28;1760169;80;21639;-77
2022/05/28 07:48:31;;;;;;;5.62;3.62;;;;;;;24.41;47.70;100298.05;1736329;81;21133;-77
2022/05/28 07:50:57;;;;;;;4.42;3.62;;;;;;;24.43;47.71;100304.08;1759810;81;21556;-77
2022/05/28 07:53:24;;;;;;;4.00;3.50;;;;;;;24.43;47.72;100305.47;1760077;81;21022;-77
2022/05/28 07:55:50;;;;;;;4.60;3.50;;;;;;;24.44;47.74;100313.23;1739015;81;21017;-77
2022/05/28 07:58:16;;;;;;;4.53;3.85;;;;;;;24.44;47.74;100311.84;1759796;80;20954;-77
2022/05/28 08:00:45;;;;;;;4.87;3.20;;;;;;;24.45;47.74;100311.47;1736026;80;21116;-77
2022/05/28 08:03:12;;;;;;;5.62;3.72;;;;;;;24.44;47.75;100300.11;1737966;81;21136;-77
2022/05/28 08:05:39;;;;;;;4.12;3.72;;;;;;;24.45;47.75;100293.97;1759767;81;21617;-77
2022/05/28 08:08:07;;;;;;;4.60;3.70;;;;;;;24.46;47.77;100301.16;1760201;80;21077;-77
2022/05/28 08:10:34;;;;;;;4.05;3.60;;;;;;;24.46;47.77;100295.59;1759857;81;21401;-77
2022/05/28 08:13:09;;;;;;;4.92;3.75;;;;;;;24.47;47.78;100298.61;1760115;80;21547;-77
2022/05/28 08:15:36;;;;;;;6.30;4.28;;;;;;;24.46;47.77;100296.98;1736161;81;21061;-77
2022/05/28 08:18:03;;;;;;;5.25;3.87;;;;;;;24.48;47.76;100300.23;1759590;81;21081;-77
2022/05/28 08:23:14;;;;;;;5.80;4.25;;;;;;;24.47;47.78;100298.61;1739736;81;21057;-77
2022/05/28 08:25:40;;;;;;;3.92;3.27;;;;;;;24.48;47.78;100301.05;1738564;80;20958;-76
2022/05/28 08:28:14;;;;;;;3.58;3.27;;;;;;;24.49;47.79;100290.12;1757271;81;21065;-77
2022/05/28 08:30:40;;;;;;;3.95;3.60;;;;;;;24.48;47.78;100294.09;1757242;80;20991;-77
2022/05/28 08:33:08;;;;;;;4.35;3.52;;;;;;;24.48;47.78;100294.67;1735997;81;21392;-77
2022/05/28 08:35:35;;;;;;;3.90;3.50;;;;;;;24.49;47.82;100299.05;1802004;78;21216;-77
2022/05/28 08:38:08;;;;;;;6.55;3.62;;;;;;;24.49;47.81;100301.83;1801818;78;20899;-77
2022/05/28 08:41:06;;;;;;;4.40;3.47;;;;;;;24.50;47.83;100313.19;1801313;78;21022;-77
2022/05/28 08:44:16;;;;;;;3.52;3.10;;;;;;;24.49;47.83;100310.17;1812599;78;21591;-77
2022/05/28 08:46:43;;;;;;;5.95;3.75;;;;;;;24.49;47.79;100304.61;1802087;78;21057;-77
2022/05/28 08:49:10;;;;;;;6.05;3.83;;;;;;;24.49;47.79;100302.64;1788248;79;21151;-77
2022/05/28 08:51:42;;;;;;;5.47;3.45;;;;;;;24.49;47.82;100299.05;1801846;79;20982;-77
2022/05/28 08:54:19;;;;;;;4.30;3.42;;;;;;;24.49;47.83;100292.91;1801819;78;21072;-77
2022/05/28 08:56:46;;;;;;;6.45;3.80;;;;;;;24.48;47.84;100301.05;1801633;79;20961;-77
2022/05/28 08:59:19;;;;;;;4.50;3.20;;;;;;;24.48;47.84;100290.50;1802079;78;21018;-77
2022/05/28 09:01:45;;;;;;;5.33;3.50;;;;;;;24.48;47.86;100296.06;1801797;78;20983;-77
2022/05/28 09:04:23;;;;;;;5.80;3.55;;;;;;;24.49;47.85;100296.27;1815388;78;21686;-77
2022/05/28 09:06:53;;;;;;;5.05;3.40;;;;;;;24.49;47.85;100294.87;1801845;78;21528;-77
2022/05/28 09:09:38;;;;;;;4.03;3.33;;;;;;;24.48;47.85;100287.14;1789056;79;21089;-77
2022/05/28 09:12:06;;;;;;;;;;;;;;;24.48;47.87;100292.70;1804467;79;21037;-77
2022/05/28 09:14:38;;;;;;;5.08;3.25;;;;;;;24.48;47.88;100293.28;1801566;78;20964;-77
2022/05/28 09:17:28;;;;;;;4.08;3.50;;;;;;;24.46;47.86;100286.67;1801761;78;21073;-77
2022/05/28 09:19:58;;;;;;;6.47;3.87;;;;;;;24.46;47.87;100286.67;1801729;78;21129;-77
2022/05/28 09:22:24;;;;;;;4.00;3.60;;;;;;;24.47;47.89;100277.17;1801932;78;21030;-77
2022/05/28 09:24:50;;;;;;;4.67;3.62;;;;;;;24.47;47.89;100271.61;1801978;78;21045;-76
2022/05/28 09:27:43;;;;;;;4.55;3.45;;;;;;;24.47;47.89;100268.02;1809576;78;21105;-77
2022/05/28 09:30:46;;;;;;;3.70;3.20;;;;;;;24.47;47.92;100271.61;1738000;81;21536;-77
2022/05/28 09:33:28;;;;;;;5.17;3.47;;;;;;;24.46;47.92;100269.98;1759861;80;21096;-77
2022/05/28 09:36:11;;;;;;;4.37;3.35;;;;;;;24.47;47.90;100273.00;1759785;81;21510;-77
2022/05/28 09:38:58;;;;;;;3.87;3.45;;;;;;;24.47;47.91;100269.41;1760174;80;21148;-77
2022/05/28 09:41:41;;;;;;;3.87;3.02;;;;;;;24.47;47.95;100272.19;1760192;80;21112;-77
2022/05/28 09:44:38;;;;;;;4.12;2.92;;;;;;;24.47;47.93;100271.61;1759778;81;21113;-77
2022/05/28 09:47:16;;;;;;;4.37;3.20;;;;;;;24.46;47.96;100274.16;1760208;80;21113;-77
2022/05/28 09:49:55;;;;;;;4.37;3.15;;;;;;;24.46;47.97;100272.77;1760029;81;21480;-77
2022/05/28 09:52:31;;;;;;;3.85;3.50;;;;;;;24.46;47.97;100265.81;1760237;80;21053;-77
2022/05/28 09:55:17;;;;;;;6.30;4.03;;;;;;;24.47;47.98;100269.41;1759270;81;22160;-77
2022/05/28 09:57:46;;;;;;;3.98;3.58;;;;;;;24.47;48.00;100265.23;1758081;81;21050;-77
2022/05/28 10:00:21;;;;;;;6.05;3.50;;;;;;;24.47;47.98;100269.41;1760062;80;21145;-77
2022/05/28 10:05:54;;;;;;;4.12;3.60;;;;;;;24.47;48.00;100267.44;1727316;82;21085;-77
2022/05/28 10:08:20;;;;;;;3.75;3.35;;;;;;;24.47;48.02;100261.06;1760490;81;21401;-77
2022/05/28 10:10:54;;;;;;;4.12;3.55;;;;;;;24.48;48.00;100262.69;1761708;80;21061;-77
2022/05/28 10:13:23;;;;;;;6.45;4.00;;;;;;;24.47;48.03;100260.48;1736712;81;21025;-77
2022/05/28 10:15:59;;;;;;;3.50;3.20;;;;;;;24.48;48.03;100256.55;1759870;81;21038;-77
2022/05/28 10:18:36;;;;;;;3.77;3.20;;;;;;;24.48;48.03;100252.38;1760375;80;21003;-77
2022/05/28 10:21:16;;;;;;;3.65;3.05;;;;;;;24.49;48.03;100254.55;1737663;81;22041;-77
2022/05/28 10:23:51;;;;;;;3.85;3.30;;;;;;;24.49;48.04;100248.41;1760214;81;21623;-77
2022/05/28 10:26:30;;;;;;;3.83;3.45;;;;;;;24.49;48.02;100242.84;1759601;80;21075;-77
2022/05/28 10:29:00;;;;;;;3.47;2.95;;;;;;;24.49;48.03;100237.28;1759768;81;21015;-77
2022/05/28 10:31:29;;;;;;;;;;;;;;;24.49;48.05;100235.08;1740371;81;21560;-77
2022/05/28 10:33:56;;;;;;;3.95;2.98;;;;;;;24.49;48.07;100233.11;1760037;81;21300;-77
2022/05/28 10:36:29;;;;;;;3.90;3.22;;;;;;;24.48;48.05;100225.96;1749704;81;21038;-77
2022/05/28 10:39:13;;;;;;;3.55;3.25;;;;;;;24.48;48.05;100225.96;1759659;80;21052;-77
2022/05/28 10:41:39;;;;;;;4.90;3.45;;;;;;;24.49;48.05;100225.35;1760041;81;21061;-77
2022/05/28 10:44:06;;;;;;;4.17;3.22;;;;;;;24.49;48.05;100221.98;1759689;80;21053;-77
2022/05/28 10:46:53;;;;;;;4.28;3.22;;;;;;;24.50;48.08;100220.02;1759789;81;21133;-77
2022/05/28 10:49:53;;;;;;;4.33;3.67;;;;;;;24.50;48.07;100222.80;1724103;81;21052;-77
2022/05/28 10:53:01;;;;;;;4.35;2.90;;;;;;;24.49;48.04;100221.18;1737695;82;21045;-77
2022/05/28 10:55:44;;;;;;;3.62;3.27;;;;;;;24.49;48.04;100205.30;1759608;80;21544;-77
2022/05/28 10:58:37;;;;;;;3.37;3.08;;;;;;;24.49;48.04;100204.49;1738033;82;20982;-77
2022/05/28 11:01:06;;;;;;;3.65;3.12;;;;;;;24.48;48.05;100206.50;1758810;81;21178;-77
2022/05/28 11:04:01;;;;;;;3.67;3.30;;;;;;;24.49;48.05;100197.55;1737906;81;21010;-77
2022/05/28 11:06:42;;;;;;;3.50;3.20;;;;;;;24.49;48.09;100201.13;1758829;81;21034;-77
2022/05/28 11:09:23;;;;;;;4.12;3.30;;;;;;;24.49;48.07;100200.33;1760226;81;21073;-77
2022/05/28 11:12:07;;;;;;;3.58;2.95;;;;;;;24.49;48.09;100195.57;1759821;81;21025;-77
2022/05/28 11:15:08;;;;;;;3.55;3.17;;;;;;;24.49;48.09;100186.42;1760321;81;21132;-77
2022/05/28 11:17:46;;;;;;;;;;;;;;;24.48;48.09;100185.64;1761617;81;21074;-77
2022/05/28 11:20:42;;;;;;;3.17;2.80;;;;;;;24.49;48.11;100190.59;1759792;80;20093;-77
2022/05/28 11:23:32;;;;;;;3.67;3.08;;;;;;;24.48;48.09;100184.83;1759901;80;21026;-77
2022/05/28 11:26:15;;;;;;;4.22;3.17;;;;;;;24.47;48.11;100173.47;1738433;82;21054;-77
2022/05/28 11:28:59;;;;;;;4.22;3.08;;;;;;;24.48;48.10;100173.70;1757718;81;21938;-77
2022/05/28 11:31:42;;;;;;;3.87;3.33;;;;;;;24.48;48.11;100163.97;1757586;80;21010;-77
2022/05/28 11:34:19;;;;;;;3.90;3.50;;;;;;;24.47;48.12;100164.55;1671703;84;21028;-77
2022/05/28 11:36:57;;;;;;;3.42;3.10;;;;;;;24.48;48.11;100168.14;1802229;78;21109;-77
2022/05/28 11:39:41;;;;;;;3.87;3.15;;;;;;;24.49;48.12;100166.95;1801755;78;21587;-77
2022/05/28 11:42:47;;;;;;;3.80;3.10;;;;;;;24.49;48.14;100162.78;1799269;78;21069;-77
2022/05/28 11:45:18;;;;;;;4.55;2.90;;;;;;;24.49;48.13;100152.47;1801500;78;21009;-77
2022/05/28 11:48:01;;;;;;;3.45;2.95;;;;;;;24.50;48.11;100139.38;1802023;78;21483;-78
2022/05/28 11:53:42;;;;;;;3.30;3.00;;;;;;;24.50;48.15;100141.58;1801644;79;20995;-78
2022/05/28 11:56:13;;;;;;;3.60;3.17;;;;;;;24.52;48.14;100137.05;1803215;77;21475;-78